モンテレー の空港の天気 - METARとTAF

ヘネラル・マリアノ・エソコベド国際空港 ( MMMY / MTY ) - メキシコ ヌエボ・レオン州モンテレー
飛行場実況気象(Metar)
観測時間11/17 11:42 CST (11/17 17:42 UTC)
風向・風速静穏 0m/s
視程10km以上
天気現象
全天の8割程度の雲 雲底高度 6100m
気温19℃
湿度56%
気圧1018hPa
METARMMMY 171742Z 00000KT 12SM BKN200 19/10 A3006 RMK SLP/// 5//// 9// 8/002
過去の天気等 Google飛行場航空写真 Wunderground天気予報

過去48時間のMETAR

飛行場予報(TAF)
発表時間: 11/17 11:11 CST (11/17 17:11 UTC)
予報対象時間: 17日12時 CST ~ 18日18時 CST
風向・風速南東 5m/s
視程10km以上
全天の8割程度の雲 雲底高度 6100m
17日22時 CST から
風向・風速南東 3m/s
視程10km以上
天気現象煙霧
全天の4割程度の雲 雲底高度 610m
全天の8割程度の雲 雲底高度 6100m
18日4時 CST から
風向・風速東北東 3m/s
視程6440m
天気現象煙霧
全天の8割程度の雲 雲底高度 460m
18日5時 CST ~ 18日9時 CST に一時的に
視程1610m
天気現象もや
全天を覆う雲 雲底高度 300m
18日10時 CST から
風向・風速北東 3m/s
視程8050m
天気現象煙霧
全天の8割程度の雲 雲底高度 460m
TAF MMMY 171711Z 1718/1824 13010KT P6SM BKN200 TX21/1721Z TN08/1812Z
FM180400 13005KT 6SM HZ SCT020 BKN200
FM181000 06005KT 4SM HZ BKN015
TEMPO 1811/1815 1SM BR OVC010
FM181600 05005KT 5SM HZ BKN015